Terminal Aerodrome Forecast
Issued by NWS

Home | Current Version | Previous Version | Text Only | Print | Product List | Glossary On
Versions: 1 2 3 4 5 6 7 8 9 10 11 12 13 14
000
FTUS43 KDDC 221700
TAFHYS
TAF
KHYS 221722Z 2218/2318 16020G30KT P6SM SCT100
     FM230200 15015G25KT P6SM SCT200
     FM230600 16020G30KT P6SM BKN200=

USA.gov is the U.S. government's official web portal to all federal, state and local government web resources and services.